sensor_id;sensor_type;location;lat;lon;timestamp;pressure;altitude;pressure_sealevel;temperature;humidity
53340;BME280;46212;50.258;19.062;2024-02-15T00:00:04;98956.75;;;6.70;83.53
53340;BME280;46212;50.258;19.062;2024-02-15T00:02:29;98968.72;;;6.80;83.53
53340;BME280;46212;50.258;19.062;2024-02-15T00:04:55;98969.38;;;6.87;83.07
53340;BME280;46212;50.258;19.062;2024-02-15T00:07:21;98975.63;;;6.88;83.42
53340;BME280;46212;50.258;19.062;2024-02-15T00:09:48;98972.66;;;6.79;83.84
53340;BME280;46212;50.258;19.062;2024-02-15T00:12:14;98977.03;;;6.76;83.52
53340;BME280;46212;50.258;19.062;2024-02-15T00:14:39;98980.88;;;6.79;83.87
53340;BME280;46212;50.258;19.062;2024-02-15T00:17:05;98981.66;;;6.79;84.23
53340;BME280;46212;50.258;19.062;2024-02-15T00:19:30;98988.22;;;6.85;84.09
53340;BME280;46212;50.258;19.062;2024-02-15T00:21:56;98991.69;;;6.89;84.07
53340;BME280;46212;50.258;19.062;2024-02-15T00:24:22;98984.56;;;6.92;84.07
53340;BME280;46212;50.258;19.062;2024-02-15T00:26:49;98991.63;;;6.93;84.00
53340;BME280;46212;50.258;19.062;2024-02-15T00:29:14;98989.78;;;6.86;84.22
53340;BME280;46212;50.258;19.062;2024-02-15T00:31:40;98985.75;;;7.11;83.28
53340;BME280;46212;50.258;19.062;2024-02-15T00:34:06;98988.75;;;7.00;83.69
53340;BME280;46212;50.258;19.062;2024-02-15T00:36:31;98999.41;;;6.94;83.88
53340;BME280;46212;50.258;19.062;2024-02-15T00:38:58;98992.03;;;7.31;83.03
53340;BME280;46212;50.258;19.062;2024-02-15T00:41:24;99003.22;;;7.20;82.64
53340;BME280;46212;50.258;19.062;2024-02-15T00:43:50;98999.94;;;7.09;83.21
53340;BME280;46212;50.258;19.062;2024-02-15T00:46:16;98999.66;;;7.04;83.76
53340;BME280;46212;50.258;19.062;2024-02-15T00:48:42;99002.75;;;7.06;83.67
53340;BME280;46212;50.258;19.062;2024-02-15T00:51:07;99002.31;;;7.27;83.19
53340;BME280;46212;50.258;19.062;2024-02-15T00:53:33;99002.81;;;7.22;83.14
53340;BME280;46212;50.258;19.062;2024-02-15T00:55:58;98998.09;;;7.22;83.16
53340;BME280;46212;50.258;19.062;2024-02-15T00:58:24;98999.28;;;7.21;83.16
53340;BME280;46212;50.258;19.062;2024-02-15T01:00:51;99001.16;;;7.44;82.30
53340;BME280;46212;50.258;19.062;2024-02-15T01:03:17;99009.81;;;7.62;81.10
53340;BME280;46212;50.258;19.062;2024-02-15T01:05:42;99006.47;;;7.35;81.87
53340;BME280;46212;50.258;19.062;2024-02-15T01:08:07;99012.81;;;7.32;81.87
53340;BME280;46212;50.258;19.062;2024-02-15T01:10:34;99008.66;;;7.24;82.28
53340;BME280;46212;50.258;19.062;2024-02-15T01:13:00;99005.06;;;7.27;82.55
53340;BME280;46212;50.258;19.062;2024-02-15T01:15:25;99014.19;;;7.40;82.25
53340;BME280;46212;50.258;19.062;2024-02-15T01:17:51;99004.50;;;7.35;82.21
53340;BME280;46212;50.258;19.062;2024-02-15T01:20:16;99007.94;;;7.39;81.28
53340;BME280;46212;50.258;19.062;2024-02-15T01:22:41;99006.53;;;7.31;82.05
53340;BME280;46212;50.258;19.062;2024-02-15T01:25:07;99004.19;;;7.30;82.17
53340;BME280;46212;50.258;19.062;2024-02-15T01:27:33;99004.44;;;7.55;80.75
53340;BME280;46212;50.258;19.062;2024-02-15T01:29:59;99005.31;;;7.52;80.83
53340;BME280;46212;50.258;19.062;2024-02-15T01:32:25;99007.59;;;7.37;81.64
53340;BME280;46212;50.258;19.062;2024-02-15T01:34:53;98995.91;;;7.14;82.75
53340;BME280;46212;50.258;19.062;2024-02-15T01:37:22;98990.47;;;7.30;82.53
53340;BME280;46212;50.258;19.062;2024-02-15T01:39:48;98977.75;;;7.20;82.38
53340;BME280;46212;50.258;19.062;2024-02-15T01:42:14;98973.59;;;7.12;82.57
53340;BME280;46212;50.258;19.062;2024-02-15T01:44:40;98985.34;;;7.32;82.50
53340;BME280;46212;50.258;19.062;2024-02-15T01:47:06;98973.19;;;7.29;82.50
53340;BME280;46212;50.258;19.062;2024-02-15T01:49:32;98972.16;;;7.23;82.39
53340;BME280;46212;50.258;19.062;2024-02-15T01:51:58;98976.66;;;7.14;82.55
53340;BME280;46212;50.258;19.062;2024-02-15T01:54:26;98974.56;;;7.21;82.56
53340;BME280;46212;50.258;19.062;2024-02-15T01:56:52;98970.91;;;7.28;82.50
53340;BME280;46212;50.258;19.062;2024-02-15T01:59:17;98964.63;;;7.08;83.10
53340;BME280;46212;50.258;19.062;2024-02-15T02:01:44;98964.44;;;7.18;82.84
53340;BME280;46212;50.258;19.062;2024-02-15T02:04:10;98971.19;;;7.14;82.92
53340;BME280;46212;50.258;19.062;2024-02-15T02:06:37;98971.88;;;7.18;82.75
53340;BME280;46212;50.258;19.062;2024-02-15T02:09:02;98963.38;;;7.12;82.76
53340;BME280;46212;50.258;19.062;2024-02-15T02:11:28;98969.00;;;7.25;82.32
53340;BME280;46212;50.258;19.062;2024-02-15T02:13:55;98968.09;;;7.12;82.72
53340;BME280;46212;50.258;19.062;2024-02-15T02:16:25;98963.59;;;7.02;83.18
53340;BME280;46212;50.258;19.062;2024-02-15T02:18:51;98961.88;;;7.08;83.17
53340;BME280;46212;50.258;19.062;2024-02-15T02:21:17;98968.28;;;7.21;82.99
53340;BME280;46212;50.258;19.062;2024-02-15T02:23:42;98963.44;;;7.09;83.29
53340;BME280;46212;50.258;19.062;2024-02-15T02:26:08;98960.84;;;7.02;83.91
53340;BME280;46212;50.258;19.062;2024-02-15T02:28:35;98959.84;;;7.12;83.47
53340;BME280;46212;50.258;19.062;2024-02-15T02:31:01;98961.41;;;7.13;83.89
53340;BME280;46212;50.258;19.062;2024-02-15T02:33:26;98964.03;;;7.00;83.80
53340;BME280;46212;50.258;19.062;2024-02-15T02:35:53;98951.63;;;7.12;84.17
53340;BME280;46212;50.258;19.062;2024-02-15T02:38:19;98961.34;;;7.16;83.58
53340;BME280;46212;50.258;19.062;2024-02-15T02:40:45;98960.97;;;7.14;83.33
53340;BME280;46212;50.258;19.062;2024-02-15T02:43:10;98970.78;;;7.15;83.65
53340;BME280;46212;50.258;19.062;2024-02-15T02:45:36;98963.09;;;7.07;83.59
53340;BME280;46212;50.258;19.062;2024-02-15T02:48:02;98953.72;;;7.04;83.84
53340;BME280;46212;50.258;19.062;2024-02-15T02:50:27;98951.53;;;7.15;83.58
53340;BME280;46212;50.258;19.062;2024-02-15T02:52:53;98954.97;;;7.55;82.50
53340;BME280;46212;50.258;19.062;2024-02-15T02:55:19;98957.78;;;7.35;82.40
53340;BME280;46212;50.258;19.062;2024-02-15T02:57:45;98956.13;;;7.22;82.97
53340;BME280;46212;50.258;19.062;2024-02-15T03:00:14;98961.75;;;7.15;83.07
53340;BME280;46212;50.258;19.062;2024-02-15T03:02:43;98952.31;;;7.16;82.83
53340;BME280;46212;50.258;19.062;2024-02-15T03:05:09;98951.41;;;7.03;83.79
53340;BME280;46212;50.258;19.062;2024-02-15T03:07:37;98950.78;;;6.95;84.40
53340;BME280;46212;50.258;19.062;2024-02-15T03:10:03;98956.34;;;6.91;84.23
53340;BME280;46212;50.258;19.062;2024-02-15T03:12:30;98963.94;;;7.04;83.84
53340;BME280;46212;50.258;19.062;2024-02-15T03:14:55;98963.44;;;7.09;83.83
53340;BME280;46212;50.258;19.062;2024-02-15T03:17:22;98961.22;;;7.04;84.00
53340;BME280;46212;50.258;19.062;2024-02-15T03:19:47;98959.91;;;7.28;82.96
53340;BME280;46212;50.258;19.062;2024-02-15T03:22:14;98956.44;;;7.43;81.80
53340;BME280;46212;50.258;19.062;2024-02-15T03:24:39;98961.59;;;7.41;81.91
53340;BME280;46212;50.258;19.062;2024-02-15T03:27:05;98955.06;;;7.16;82.79
53340;BME280;46212;50.258;19.062;2024-02-15T03:29:30;98948.09;;;7.11;83.05
53340;BME280;46212;50.258;19.062;2024-02-15T03:31:56;98954.16;;;7.22;83.11
53340;BME280;46212;50.258;19.062;2024-02-15T03:34:21;98960.66;;;7.48;81.96
53340;BME280;46212;50.258;19.062;2024-02-15T03:36:48;98952.44;;;7.28;82.15
53340;BME280;46212;50.258;19.062;2024-02-15T03:39:18;98940.13;;;7.17;82.90
53340;BME280;46212;50.258;19.062;2024-02-15T03:41:44;98952.31;;;7.16;83.00
53340;BME280;46212;50.258;19.062;2024-02-15T03:44:11;98949.50;;;7.19;82.87
53340;BME280;46212;50.258;19.062;2024-02-15T03:46:37;98952.06;;;7.26;82.54
53340;BME280;46212;50.258;19.062;2024-02-15T03:49:02;98954.69;;;7.14;83.01
53340;BME280;46212;50.258;19.062;2024-02-15T03:51:28;98956.38;;;7.27;82.82
53340;BME280;46212;50.258;19.062;2024-02-15T03:53:54;98956.53;;;7.20;83.09
53340;BME280;46212;50.258;19.062;2024-02-15T03:56:19;98960.38;;;7.07;83.34
53340;BME280;46212;50.258;19.062;2024-02-15T03:58:46;98952.19;;;7.03;83.86
53340;BME280;46212;50.258;19.062;2024-02-15T04:01:12;98951.09;;;7.36;83.05
53340;BME280;46212;50.258;19.062;2024-02-15T04:03:40;98953.53;;;7.51;82.29
53340;BME280;46212;50.258;19.062;2024-02-15T04:06:05;98951.47;;;7.55;81.73
53340;BME280;46212;50.258;19.062;2024-02-15T04:08:31;98953.34;;;7.41;82.60
53340;BME280;46212;50.258;19.062;2024-02-15T04:10:57;98948.91;;;7.28;82.75
53340;BME280;46212;50.258;19.062;2024-02-15T04:13:23;98948.59;;;7.06;83.66
53340;BME280;46212;50.258;19.062;2024-02-15T04:15:48;98947.38;;;7.07;84.08
53340;BME280;46212;50.258;19.062;2024-02-15T04:18:15;98953.50;;;7.15;83.53
53340;BME280;46212;50.258;19.062;2024-02-15T04:20:43;98947.75;;;7.09;84.09
53340;BME280;46212;50.258;19.062;2024-02-15T04:23:13;98944.88;;;6.97;84.45
53340;BME280;46212;50.258;19.062;2024-02-15T04:25:38;98947.47;;;7.04;84.56
53340;BME280;46212;50.258;19.062;2024-02-15T04:28:04;98952.06;;;7.10;84.18
53340;BME280;46212;50.258;19.062;2024-02-15T04:30:30;98950.44;;;7.13;84.06
53340;BME280;46212;50.258;19.062;2024-02-15T04:32:56;98957.53;;;7.10;84.09
53340;BME280;46212;50.258;19.062;2024-02-15T04:35:21;98956.31;;;7.11;84.41
53340;BME280;46212;50.258;19.062;2024-02-15T04:37:47;98953.84;;;7.17;84.45
53340;BME280;46212;50.258;19.062;2024-02-15T04:40:14;98962.84;;;7.37;83.19
53340;BME280;46212;50.258;19.062;2024-02-15T04:42:40;98956.53;;;7.20;83.75
53340;BME280;46212;50.258;19.062;2024-02-15T04:45:07;98963.09;;;7.07;84.42
53340;BME280;46212;50.258;19.062;2024-02-15T04:47:34;98961.53;;;7.06;84.40
53340;BME280;46212;50.258;19.062;2024-02-15T04:50:00;98960.44;;;7.03;84.65
53340;BME280;46212;50.258;19.062;2024-02-15T04:52:26;98957.25;;;7.05;84.89
53340;BME280;46212;50.258;19.062;2024-02-15T04:54:51;98957.03;;;7.15;84.47
53340;BME280;46212;50.258;19.062;2024-02-15T04:57:19;98954.34;;;7.12;84.42
53340;BME280;46212;50.258;19.062;2024-02-15T04:59:44;98957.69;;;7.03;85.02
53340;BME280;46212;50.258;19.062;2024-02-15T05:02:12;98967.75;;;7.10;85.09
53340;BME280;46212;50.258;19.062;2024-02-15T05:04:38;98983.25;;;7.00;85.13
53340;BME280;46212;50.258;19.062;2024-02-15T05:07:03;98978.38;;;7.08;84.98
53340;BME280;46212;50.258;19.062;2024-02-15T05:09:29;98979.78;;;6.96;85.36
53340;BME280;46212;50.258;19.062;2024-02-15T05:11:59;98975.13;;;6.93;85.50
53340;BME280;46212;50.258;19.062;2024-02-15T05:14:25;98984.78;;;7.01;85.41
53340;BME280;46212;50.258;19.062;2024-02-15T05:16:51;98979.78;;;6.96;85.35
53340;BME280;46212;50.258;19.062;2024-02-15T05:19:17;98979.38;;;6.98;85.74
53340;BME280;46212;50.258;19.062;2024-02-15T05:21:46;98981.97;;;7.05;85.66
53340;BME280;46212;50.258;19.062;2024-02-15T05:24:16;98996.81;;;7.07;85.55
53340;BME280;46212;50.258;19.062;2024-02-15T05:26:43;98988.88;;;6.93;86.11
53340;BME280;46212;50.258;19.062;2024-02-15T05:29:11;98992.03;;;7.11;85.82
53340;BME280;46212;50.258;19.062;2024-02-15T05:31:37;98984.63;;;7.08;85.82
53340;BME280;46212;50.258;19.062;2024-02-15T05:34:04;98985.28;;;7.16;85.53
53340;BME280;46212;50.258;19.062;2024-02-15T05:36:30;98992.81;;;7.12;85.03
53340;BME280;46212;50.258;19.062;2024-02-15T05:38:56;98994.78;;;7.11;85.28
53340;BME280;46212;50.258;19.062;2024-02-15T05:41:22;99003.22;;;7.20;84.90
53340;BME280;46212;50.258;19.062;2024-02-15T05:43:48;98995.75;;;7.01;85.25
53340;BME280;46212;50.258;19.062;2024-02-15T05:46:14;98995.41;;;6.99;85.67
53340;BME280;46212;50.258;19.062;2024-02-15T05:48:39;99000.00;;;7.06;85.32
53340;BME280;46212;50.258;19.062;2024-02-15T05:51:06;99000.25;;;6.91;86.06
53340;BME280;46212;50.258;19.062;2024-02-15T05:53:32;98997.09;;;6.93;86.27
53340;BME280;46212;50.258;19.062;2024-02-15T05:56:05;98994.75;;;6.91;86.36
53340;BME280;46212;50.258;19.062;2024-02-15T05:58:32;98999.41;;;6.94;86.24
53340;BME280;46212;50.258;19.062;2024-02-15T06:00:58;99001.94;;;6.85;86.23
53340;BME280;46212;50.258;19.062;2024-02-15T06:03:27;99009.50;;;6.81;86.45
53340;BME280;46212;50.258;19.062;2024-02-15T06:05:53;99010.41;;;6.94;86.38
53340;BME280;46212;50.258;19.062;2024-02-15T06:08:26;99013.44;;;7.00;86.14
53340;BME280;46212;50.258;19.062;2024-02-15T06:10:52;99009.34;;;6.88;86.20
53340;BME280;46212;50.258;19.062;2024-02-15T06:13:19;99016.44;;;6.86;86.82
53340;BME280;46212;50.258;19.062;2024-02-15T06:15:45;99019.41;;;6.95;86.40
53340;BME280;46212;50.258;19.062;2024-02-15T06:18:14;99023.72;;;6.96;86.02
53340;BME280;46212;50.258;19.062;2024-02-15T06:20:41;99020.56;;;6.98;85.93
53340;BME280;46212;50.258;19.062;2024-02-15T06:23:08;99017.03;;;6.97;85.86
53340;BME280;46212;50.258;19.062;2024-02-15T06:25:34;99020.03;;;6.83;86.48
53340;BME280;46212;50.258;19.062;2024-02-15T06:28:00;99029.59;;;6.75;86.48
53340;BME280;46212;50.258;19.062;2024-02-15T06:30:38;99025.97;;;6.58;87.54
53340;BME280;46212;50.258;19.062;2024-02-15T06:33:22;99026.94;;;6.48;88.53
53340;BME280;46212;50.258;19.062;2024-02-15T06:36:06;99029.25;;;6.26;89.13
53340;BME280;46212;50.258;19.062;2024-02-15T06:38:50;99017.91;;;6.01;90.87
53340;BME280;46212;50.258;19.062;2024-02-15T06:41:34;99026.44;;;6.07;91.53
53340;BME280;46212;50.258;19.062;2024-02-15T06:44:00;99026.03;;;6.08;91.52
53340;BME280;46212;50.258;19.062;2024-02-15T06:46:25;99024.63;;;5.97;91.88
53340;BME280;46212;50.258;19.062;2024-02-15T06:48:51;99026.97;;;5.98;92.79
53340;BME280;46212;50.258;19.062;2024-02-15T06:51:18;99025.34;;;6.01;92.96
53340;BME280;46212;50.258;19.062;2024-02-15T06:53:44;99025.19;;;6.11;92.33
53340;BME280;46212;50.258;19.062;2024-02-15T06:56:09;99022.13;;;6.06;92.58
53340;BME280;46212;50.258;19.062;2024-02-15T06:58:36;99036.06;;;6.18;92.25
53340;BME280;46212;50.258;19.062;2024-02-15T07:01:01;99018.00;;;6.21;92.45
53340;BME280;46212;50.258;19.062;2024-02-15T07:03:28;99031.28;;;6.22;92.13
53340;BME280;46212;50.258;19.062;2024-02-15T07:05:55;99034.00;;;6.22;92.26
53340;BME280;46212;50.258;19.062;2024-02-15T07:08:21;99022.41;;;6.38;91.49
53340;BME280;46212;50.258;19.062;2024-02-15T07:10:50;99031.22;;;6.26;92.03
53340;BME280;46212;50.258;19.062;2024-02-15T07:13:17;99027.09;;;6.14;92.57
53340;BME280;46212;50.258;19.062;2024-02-15T07:15:42;99033.66;;;6.20;92.17
53340;BME280;46212;50.258;19.062;2024-02-15T07:18:09;99029.31;;;6.23;92.09
53340;BME280;46212;50.258;19.062;2024-02-15T07:20:36;99028.13;;;6.24;92.23
53340;BME280;46212;50.258;19.062;2024-02-15T07:23:01;99024.94;;;6.25;91.87
53340;BME280;46212;50.258;19.062;2024-02-15T07:25:27;99032.78;;;6.27;91.89
53340;BME280;46212;50.258;19.062;2024-02-15T07:27:52;99021.50;;;6.21;92.06
53340;BME280;46212;50.258;19.062;2024-02-15T07:30:19;99030.91;;;6.20;92.09
53340;BME280;46212;50.258;19.062;2024-02-15T07:32:45;99025.09;;;6.18;92.51
53340;BME280;46212;50.258;19.062;2024-02-15T07:35:11;99034.97;;;6.35;91.81
53340;BME280;46212;50.258;19.062;2024-02-15T07:37:36;99035.09;;;6.52;91.50
53340;BME280;46212;50.258;19.062;2024-02-15T07:40:02;99031.09;;;6.79;90.79
53340;BME280;46212;50.258;19.062;2024-02-15T07:42:34;99037.78;;;6.98;89.91
53340;BME280;46212;50.258;19.062;2024-02-15T07:45:00;99046.97;;;7.31;88.71
53340;BME280;46212;50.258;19.062;2024-02-15T07:47:26;99040.75;;;7.46;87.91
53340;BME280;46212;50.258;19.062;2024-02-15T07:49:52;99041.31;;;7.58;87.43
53340;BME280;46212;50.258;19.062;2024-02-15T07:52:17;99040.22;;;7.71;86.29
53340;BME280;46212;50.258;19.062;2024-02-15T07:54:44;99046.13;;;8.06;84.89
53340;BME280;46212;50.258;19.062;2024-02-15T07:57:09;99043.75;;;8.08;84.57
53340;BME280;46212;50.258;19.062;2024-02-15T07:59:36;99040.75;;;8.02;84.35
53340;BME280;46212;50.258;19.062;2024-02-15T08:02:01;99038.63;;;8.42;83.32
53340;BME280;46212;50.258;19.062;2024-02-15T08:04:27;99040.44;;;8.32;82.98
53340;BME280;46212;50.258;19.062;2024-02-15T08:06:54;99033.63;;;8.21;83.73
53340;BME280;46212;50.258;19.062;2024-02-15T08:09:19;99044.03;;;8.29;83.50
53340;BME280;46212;50.258;19.062;2024-02-15T08:11:48;99032.94;;;8.49;82.51
53340;BME280;46212;50.258;19.062;2024-02-15T08:14:13;99039.13;;;8.53;82.56
53340;BME280;46212;50.258;19.062;2024-02-15T08:16:39;99028.28;;;8.78;82.96
53340;BME280;46212;50.258;19.062;2024-02-15T08:19:06;99031.03;;;8.78;81.72
53340;BME280;46212;50.258;19.062;2024-02-15T08:21:32;99028.06;;;9.14;81.12
53340;BME280;46212;50.258;19.062;2024-02-15T08:24:00;99037.66;;;9.10;80.13
53340;BME280;46212;50.258;19.062;2024-02-15T08:26:26;99024.03;;;9.19;79.34
53340;BME280;46212;50.258;19.062;2024-02-15T08:28:51;99016.78;;;9.37;79.15
53340;BME280;46212;50.258;19.062;2024-02-15T08:31:20;99020.34;;;9.38;78.74
53340;BME280;46212;50.258;19.062;2024-02-15T08:33:46;99014.28;;;9.55;78.41
53340;BME280;46212;50.258;19.062;2024-02-15T08:36:12;99004.84;;;9.69;77.41
53340;BME280;46212;50.258;19.062;2024-02-15T08:38:39;99020.41;;;10.01;76.29
53340;BME280;46212;50.258;19.062;2024-02-15T08:41:06;99012.44;;;9.90;77.24
53340;BME280;46212;50.258;19.062;2024-02-15T08:43:33;99015.31;;;10.12;76.54
53340;BME280;46212;50.258;19.062;2024-02-15T08:45:59;99021.50;;;10.41;74.77
53340;BME280;46212;50.258;19.062;2024-02-15T08:48:25;99014.53;;;10.49;75.33
53340;BME280;46212;50.258;19.062;2024-02-15T08:50:51;99008.22;;;10.49;74.99
53340;BME280;46212;50.258;19.062;2024-02-15T08:53:17;99016.16;;;10.94;73.81
53340;BME280;46212;50.258;19.062;2024-02-15T08:55:47;99016.44;;;11.08;73.43
53340;BME280;46212;50.258;19.062;2024-02-15T08:58:13;99017.06;;;11.34;72.07
53340;BME280;46212;50.258;19.062;2024-02-15T09:00:38;99013.66;;;11.30;71.21
53340;BME280;46212;50.258;19.062;2024-02-15T09:03:09;99014.38;;;11.43;71.35
53340;BME280;46212;50.258;19.062;2024-02-15T09:05:35;99022.72;;;11.52;70.64
53340;BME280;46212;50.258;19.062;2024-02-15T09:08:00;99018.75;;;11.32;71.17
53340;BME280;46212;50.258;19.062;2024-02-15T09:10:25;99013.34;;;11.28;71.66
53340;BME280;46212;50.258;19.062;2024-02-15T09:12:51;99021.25;;;11.60;70.40
53340;BME280;46212;50.258;19.062;2024-02-15T09:15:17;99025.75;;;11.24;70.93
53340;BME280;46212;50.258;19.062;2024-02-15T09:17:43;99031.03;;;11.31;70.61
53340;BME280;46212;50.258;19.062;2024-02-15T09:20:12;99021.66;;;11.06;71.22
53340;BME280;46212;50.258;19.062;2024-02-15T09:22:42;99023.75;;;11.02;71.22
53340;BME280;46212;50.258;19.062;2024-02-15T09:25:08;99033.66;;;11.12;71.30
53340;BME280;46212;50.258;19.062;2024-02-15T09:27:34;99034.50;;;11.22;70.65
53340;BME280;46212;50.258;19.062;2024-02-15T09:29:59;99032.19;;;11.20;70.59
53340;BME280;46212;50.258;19.062;2024-02-15T09:32:25;99027.66;;;10.92;72.25
53340;BME280;46212;50.258;19.062;2024-02-15T09:34:50;99023.38;;;11.13;71.17
53340;BME280;46212;50.258;19.062;2024-02-15T09:37:16;99029.16;;;11.28;71.13
53340;BME280;46212;50.258;19.062;2024-02-15T09:39:41;99023.88;;;11.20;70.93
53340;BME280;46212;50.258;19.062;2024-02-15T09:42:06;99027.13;;;11.19;70.67
53340;BME280;46212;50.258;19.062;2024-02-15T09:44:32;99016.84;;;10.85;71.79
53340;BME280;46212;50.258;19.062;2024-02-15T09:47:05;99025.56;;;10.96;72.51
53340;BME280;46212;50.258;19.062;2024-02-15T09:49:37;99020.22;;;11.02;72.08
53340;BME280;46212;50.258;19.062;2024-02-15T09:52:06;99023.03;;;11.11;72.39
53340;BME280;46212;50.258;19.062;2024-02-15T09:54:33;99027.88;;;11.19;71.58
53340;BME280;46212;50.258;19.062;2024-02-15T09:57:01;99023.44;;;11.22;71.80
53340;BME280;46212;50.258;19.062;2024-02-15T09:59:26;99022.59;;;11.34;70.78
53340;BME280;46212;50.258;19.062;2024-02-15T10:01:52;99017.22;;;11.61;70.11
53340;BME280;46212;50.258;19.062;2024-02-15T10:04:23;99018.41;;;11.73;69.41
53340;BME280;46212;50.258;19.062;2024-02-15T10:06:51;99018.00;;;11.84;68.58
53340;BME280;46212;50.258;19.062;2024-02-15T10:09:25;99029.59;;;12.00;68.57
53340;BME280;46212;50.258;19.062;2024-02-15T10:12:02;99017.19;;;11.74;69.61
53340;BME280;46212;50.258;19.062;2024-02-15T10:14:29;99016.97;;;11.68;70.26
53340;BME280;46212;50.258;19.062;2024-02-15T10:16:55;99016.03;;;11.62;70.23
53340;BME280;46212;50.258;19.062;2024-02-15T10:19:22;99015.63;;;11.51;70.65
53340;BME280;46212;50.258;19.062;2024-02-15T10:21:54;99014.41;;;11.52;70.51
53340;BME280;46212;50.258;19.062;2024-02-15T10:24:23;99021.75;;;11.46;70.79
53340;BME280;46212;50.258;19.062;2024-02-15T10:26:49;99022.84;;;11.49;70.95
53340;BME280;46212;50.258;19.062;2024-02-15T10:29:15;99016.41;;;11.52;71.14
53340;BME280;46212;50.258;19.062;2024-02-15T10:31:58;99009.81;;;11.28;71.66
53340;BME280;46212;50.258;19.062;2024-02-15T10:34:24;99012.03;;;11.42;71.38
53340;BME280;46212;50.258;19.062;2024-02-15T10:36:54;99011.22;;;11.54;71.04
53340;BME280;46212;50.258;19.062;2024-02-15T10:39:22;99013.19;;;11.75;70.45
53340;BME280;46212;50.258;19.062;2024-02-15T10:41:52;99007.84;;;12.20;70.12
53340;BME280;46212;50.258;19.062;2024-02-15T10:44:23;99006.94;;;12.23;68.84
53340;BME280;46212;50.258;19.062;2024-02-15T10:46:52;99019.78;;;12.57;67.50
53340;BME280;46212;50.258;19.062;2024-02-15T10:49:22;99002.88;;;12.64;67.29
53340;BME280;46212;50.258;19.062;2024-02-15T10:52:01;99005.66;;;12.83;66.69
53340;BME280;46212;50.258;19.062;2024-02-15T10:54:43;98996.56;;;12.91;66.26
53340;BME280;46212;50.258;19.062;2024-02-15T10:57:12;99006.09;;;12.72;66.29
53340;BME280;46212;50.258;19.062;2024-02-15T10:59:54;99001.94;;;12.86;66.38
53340;BME280;46212;50.258;19.062;2024-02-15T11:02:29;99007.94;;;12.66;67.23
53340;BME280;46212;50.258;19.062;2024-02-15T11:05:01;99010.41;;;12.64;67.18
53340;BME280;46212;50.258;19.062;2024-02-15T11:07:28;99007.50;;;12.76;66.60
53340;BME280;46212;50.258;19.062;2024-02-15T11:09:55;99005.78;;;12.88;66.16
53340;BME280;46212;50.258;19.062;2024-02-15T11:12:22;99004.09;;;12.82;66.54
53340;BME280;46212;50.258;19.062;2024-02-15T11:14:48;98997.31;;;13.01;66.04
53340;BME280;46212;50.258;19.062;2024-02-15T11:17:45;98994.56;;;13.01;65.86
53340;BME280;46212;50.258;19.062;2024-02-15T11:22:58;98992.25;;;12.90;66.64
53340;BME280;46212;50.258;19.062;2024-02-15T11:25:37;98991.94;;;12.97;66.51
53340;BME280;46212;50.258;19.062;2024-02-15T11:30:48;98984.53;;;12.85;67.00
53340;BME280;46212;50.258;19.062;2024-02-15T11:36:12;98981.47;;;13.01;65.84
53340;BME280;46212;50.258;19.062;2024-02-15T11:38:39;98979.63;;;12.98;66.14
53340;BME280;46212;50.258;19.062;2024-02-15T11:41:11;98971.25;;;13.53;64.32
53340;BME280;46212;50.258;19.062;2024-02-15T11:46:13;98968.94;;;13.42;64.11
53340;BME280;46212;50.258;19.062;2024-02-15T11:48:39;98969.19;;;13.71;62.92
53340;BME280;46212;50.258;19.062;2024-02-15T11:51:05;98964.44;;;14.05;61.86
53340;BME280;46212;50.258;19.062;2024-02-15T11:53:32;98968.38;;;14.13;61.27
53340;BME280;46212;50.258;19.062;2024-02-15T11:56:01;98967.38;;;13.92;62.84
53340;BME280;46212;50.258;19.062;2024-02-15T11:58:33;98969.78;;;14.08;62.47
53340;BME280;46212;50.258;19.062;2024-02-15T12:01:11;98965.31;;;13.78;62.63
53340;BME280;46212;50.258;19.062;2024-02-15T12:03:56;98955.81;;;14.26;61.09
53340;BME280;46212;50.258;19.062;2024-02-15T12:06:40;98963.00;;;14.42;60.80
53340;BME280;46212;50.258;19.062;2024-02-15T12:09:24;98956.94;;;14.44;60.75
53340;BME280;46212;50.258;19.062;2024-02-15T12:12:11;98947.47;;;14.26;60.83
53340;BME280;46212;50.258;19.062;2024-02-15T12:14:59;98948.22;;;14.36;60.20
53340;BME280;46212;50.258;19.062;2024-02-15T12:17:43;98948.78;;;14.16;61.13
53340;BME280;46212;50.258;19.062;2024-02-15T12:20:28;98946.28;;;14.89;59.39
53340;BME280;46212;50.258;19.062;2024-02-15T12:22:54;98945.25;;;15.31;57.54
53340;BME280;46212;50.258;19.062;2024-02-15T12:25:20;98952.81;;;15.01;58.12
53340;BME280;46212;50.258;19.062;2024-02-15T12:27:52;98941.34;;;14.84;58.85
53340;BME280;46212;50.258;19.062;2024-02-15T12:30:18;98949.44;;;14.97;58.44
53340;BME280;46212;50.258;19.062;2024-02-15T12:32:48;98940.13;;;14.85;58.09
53340;BME280;46212;50.258;19.062;2024-02-15T12:35:16;98941.75;;;14.77;58.79
53340;BME280;46212;50.258;19.062;2024-02-15T12:37:48;98927.41;;;14.55;60.04
53340;BME280;46212;50.258;19.062;2024-02-15T12:40:17;98935.78;;;14.84;59.12
53340;BME280;46212;50.258;19.062;2024-02-15T12:42:46;98935.59;;;14.73;59.13
53340;BME280;46212;50.258;19.062;2024-02-15T12:45:19;98937.72;;;14.31;60.37
53340;BME280;46212;50.258;19.062;2024-02-15T12:47:54;98929.06;;;14.62;59.92
53340;BME280;46212;50.258;19.062;2024-02-15T12:50:30;98923.59;;;14.44;60.54
53340;BME280;46212;50.258;19.062;2024-02-15T12:52:55;98925.94;;;14.45;60.25
53340;BME280;46212;50.258;19.062;2024-02-15T12:55:28;98933.00;;;14.46;60.23
53340;BME280;46212;50.258;19.062;2024-02-15T12:57:54;98930.28;;;14.13;61.32
53340;BME280;46212;50.258;19.062;2024-02-15T13:00:24;98940.56;;;14.22;61.27
53340;BME280;46212;50.258;19.062;2024-02-15T13:03:02;98932.16;;;13.74;62.83
53340;BME280;46212;50.258;19.062;2024-02-15T13:05:34;98933.53;;;13.79;63.36
53340;BME280;46212;50.258;19.062;2024-02-15T13:08:01;98929.13;;;13.96;64.65
53340;BME280;46212;50.258;19.062;2024-02-15T13:10:28;98929.25;;;13.69;65.73